This is the latest recevied weather packets stored in our database for station/object VK3AGD-9. If no packets are shown the sender has not sent any weather packets the latest 10 day(s).
| Time | Temp. | Humidity | Pressure | Rain* | Wind** | Luminosity | Snow |
|---|---|---|---|---|---|---|---|
| 1777503701 | 20.56° C | 57% | - | 0 mm | - | - | - |
| 1777502740 | 19.44° C | 59% | - | 0 mm | - | - | - |
| 1777501877 | 19.44° C | 59% | - | 0 mm | - | - | - |
| 1777501013 | 18.89° C | 59% | - | 0 mm | - | - | - |
| 1777500053 | 18.89° C | 59% | - | 0 mm | - | - | - |
| 1777499189 | 18.89° C | 58% | - | 0 mm | - | - | - |
| 1777498229 | 18.89° C | 58% | - | 0 mm | - | - | - |
| 1777497365 | 18.89° C | 58% | - | 0 mm | - | - | - |
| 1777496500 | 18.89° C | 57% | - | 0 mm | - | - | - |
| 1777495542 | 19.44° C | 57% | - | 0 mm | - | - | - |
| 1777494677 | 19.44° C | 56% | - | 0 mm | - | - | - |
| 1777493813 | 18.89° C | 56% | - | 0 mm | - | - | - |
| 1777492853 | 18.89° C | 56% | - | 0 mm | - | - | - |
| 1777491989 | 18.89° C | 56% | - | 0 mm | - | - | - |
| 1777491028 | 18.33° C | 57% | - | 0 mm | - | - | - |
| 1777490164 | 18.33° C | 58% | - | 0 mm | - | - | - |
| 1777489301 | 16.11° C | 66% | - | 0 mm | - | - | - |
| 1777488341 | 15° C | 71% | - | 0 mm | - | - | - |
| 1777487477 | 15° C | 73% | - | 0 mm | - | - | - |
| 1777486613 | 16.11° C | 68% | - | 0 mm | - | - | - |
| 1777485653 | 16.67° C | 67% | - | 0 mm | - | - | - |
* Rain latest hour (hover to see other rain measurements)
** Current wind speed in m/s (hover to see current wind gust speed)